createdAt,value
2023-05-22T00:03:31.418Z,2.20
2023-05-22T00:08:58.365Z,2.60
2023-05-22T00:14:23.358Z,2.45
2023-05-22T00:19:41.353Z,2.35
2023-05-22T00:25:15.339Z,2.58
2023-05-22T00:30:40.633Z,2.40
2023-05-22T00:36:04.346Z,2.30
2023-05-22T00:41:32.400Z,2.33
2023-05-22T00:46:56.431Z,2.55
2023-05-22T00:52:24.383Z,2.63
2023-05-22T00:57:53.397Z,2.63
2023-05-22T01:03:19.408Z,2.20
2023-05-22T01:08:43.378Z,2.25
2023-05-22T01:14:17.402Z,2.28
2023-05-22T01:20:14.520Z,2.33
2023-05-22T01:26:10.392Z,2.30
2023-05-22T01:31:41.419Z,2.33
2023-05-22T01:37:07.431Z,2.50
2023-05-22T01:42:33.417Z,2.20
2023-05-22T01:48:00.489Z,2.30
2023-05-22T01:53:32.434Z,2.42
2023-05-22T01:59:03.423Z,2.50
2023-05-22T02:04:32.446Z,2.40
2023-05-22T02:10:01.403Z,2.35
2023-05-22T02:15:29.447Z,2.22
2023-05-22T02:20:57.439Z,2.40
2023-05-22T02:26:29.440Z,2.22
2023-05-22T02:31:54.464Z,2.60
2023-05-22T02:37:22.450Z,2.47
2023-05-22T02:42:47.451Z,2.33
2023-05-22T02:48:11.481Z,2.30
2023-05-22T02:53:40.519Z,2.42
2023-05-22T02:59:04.484Z,2.50
2023-05-22T03:04:29.481Z,2.60
2023-05-22T03:09:58.455Z,2.30
2023-05-22T03:15:23.452Z,2.47
2023-05-22T03:20:53.449Z,2.50
2023-05-22T03:26:28.500Z,2.50
2023-05-22T03:31:55.459Z,2.70
2023-05-22T03:37:20.530Z,2.50
2023-05-22T03:42:48.471Z,2.40
2023-05-22T03:48:25.520Z,2.42
2023-05-22T03:53:50.478Z,2.38
2023-05-22T03:59:19.539Z,2.60
2023-05-22T04:04:45.532Z,2.70
2023-05-22T04:10:09.511Z,2.65
2023-05-22T04:15:40.546Z,2.60
2023-05-22T04:21:04.528Z,2.90
2023-05-22T04:26:36.509Z,2.75
2023-05-22T04:32:06.514Z,2.70
2023-05-22T04:37:31.527Z,2.83
2023-05-22T04:42:56.501Z,2.60
2023-05-22T04:48:26.552Z,2.88
2023-05-22T04:53:52.563Z,3.17
2023-05-22T04:59:22.551Z,2.80
2023-05-22T05:04:50.502Z,3.22
2023-05-22T05:10:15.552Z,2.95
2023-05-22T05:15:40.541Z,2.75
2023-05-22T05:21:07.561Z,2.50
2023-05-22T05:26:33.574Z,2.50
2023-05-22T05:31:58.578Z,2.60
2023-05-22T05:37:46.547Z,2.72
2023-05-22T05:43:11.551Z,2.58
2023-05-22T05:48:36.575Z,2.50
2023-05-22T05:54:03.574Z,2.58
2023-05-22T05:59:29.569Z,2.40
2023-05-22T06:05:12.602Z,2.42
2023-05-22T06:10:42.645Z,2.85
2023-05-22T06:16:22.713Z,2.72
2023-05-22T06:21:47.994Z,2.75
2023-05-22T06:27:23.618Z,2.60
2023-05-22T06:32:48.758Z,2.28
2023-05-22T06:38:13.637Z,2.50
2023-05-22T06:43:41.555Z,2.42
2023-05-22T06:49:06.599Z,2.30
2023-05-22T06:54:36.585Z,2.40
2023-05-22T07:00:07.602Z,2.50
2023-05-22T07:05:50.712Z,2.38
2023-05-22T07:11:15.640Z,2.25
2023-05-22T07:16:43.698Z,2.20
2023-05-22T07:22:13.600Z,2.17
2023-05-22T07:27:45.640Z,2.13
2023-05-22T07:33:15.695Z,2.10
2023-05-22T07:38:39.642Z,1.90
2023-05-22T07:44:06.653Z,1.80
2023-05-22T07:49:34.652Z,1.90
2023-05-22T07:55:05.623Z,1.85
2023-05-22T08:00:32.684Z,2.00
2023-05-22T08:05:59.698Z,1.83
2023-05-22T08:11:24.670Z,1.88
2023-05-22T08:16:48.732Z,2.00
2023-05-22T08:22:16.700Z,1.90
2023-05-22T08:27:40.639Z,1.98
2023-05-22T08:33:05.746Z,2.15
2023-05-22T08:38:33.679Z,1.85
2023-05-22T08:43:58.672Z,2.10
2023-05-22T08:49:24.702Z,1.85
2023-05-22T08:54:58.683Z,1.70
2023-05-22T09:00:24.716Z,1.80
2023-05-22T09:05:49.673Z,1.67
2023-05-22T09:11:17.717Z,1.50
2023-05-22T09:16:42.733Z,1.80
2023-05-22T09:22:07.744Z,1.50
2023-05-22T09:27:43.708Z,1.70
2023-05-22T09:33:08.910Z,1.75
2023-05-22T09:38:32.800Z,1.50
2023-05-22T09:44:02.298Z,1.80
2023-05-22T09:49:27.739Z,1.65
2023-05-22T09:55:01.751Z,1.40
2023-05-22T10:00:31.753Z,1.65
2023-05-22T10:05:59.744Z,1.70
2023-05-22T10:11:25.762Z,1.42
2023-05-22T10:16:53.751Z,1.70
2023-05-22T10:22:21.724Z,1.40
2023-05-22T10:27:53.761Z,1.42
2023-05-22T10:33:26.821Z,1.50
2023-05-22T10:39:08.770Z,1.48
2023-05-22T10:44:33.743Z,1.30
2023-05-22T10:50:01.778Z,1.48
2023-05-22T10:55:32.749Z,1.30
2023-05-22T11:00:57.811Z,1.40
2023-05-22T11:06:42.951Z,1.40
2023-05-22T11:12:37.824Z,1.30
2023-05-22T11:18:11.927Z,1.50
2023-05-22T11:23:40.771Z,1.23
2023-05-22T11:29:05.814Z,1.40
2023-05-22T11:34:30.822Z,1.30
2023-05-22T11:40:05.873Z,1.30
2023-05-22T11:45:30.852Z,1.20
2023-05-22T11:50:56.826Z,1.33
2023-05-22T11:56:23.869Z,1.30
2023-05-22T12:01:48.830Z,1.38
2023-05-22T12:07:34.818Z,1.27
2023-05-22T12:13:03.842Z,1.10
2023-05-22T12:18:29.842Z,1.30
2023-05-22T12:23:59.853Z,1.30
2023-05-22T12:29:26.871Z,1.30
2023-05-22T12:34:58.078Z,1.25
2023-05-22T12:40:25.851Z,1.10
2023-05-22T12:46:03.626Z,1.10
2023-05-22T12:51:27.857Z,1.08
2023-05-22T12:56:52.885Z,1.00
2023-05-22T13:02:19.926Z,1.25
2023-05-22T13:07:45.704Z,1.20
2023-05-22T13:13:09.898Z,1.00
2023-05-22T13:18:48.161Z,1.13
2023-05-22T13:24:20.887Z,1.13
2023-05-22T13:29:55.782Z,1.10
2023-05-22T13:35:23.930Z,1.25
2023-05-22T13:40:49.024Z,1.17
2023-05-22T13:46:13.954Z,0.90
2023-05-22T13:51:41.886Z,1.00
2023-05-22T13:57:08.909Z,1.10
2023-05-22T14:02:34.019Z,1.38
2023-05-22T14:08:03.174Z,0.90
2023-05-22T14:13:27.960Z,1.00
2023-05-22T14:18:52.004Z,1.17
2023-05-22T14:24:19.965Z,0.93
2023-05-22T14:29:43.950Z,1.17
2023-05-22T14:35:08.972Z,1.00
2023-05-22T14:40:36.009Z,0.90
2023-05-22T14:46:01.009Z,1.00
2023-05-22T14:51:25.004Z,0.90
2023-05-22T14:56:53.188Z,0.93
2023-05-22T15:02:17.266Z,1.00
2023-05-22T15:07:44.508Z,1.10
2023-05-22T15:13:13.974Z,1.10
2023-05-22T15:18:38.993Z,0.98
2023-05-22T15:24:03.987Z,1.13
2023-05-22T15:29:31.990Z,1.00
2023-05-22T15:34:55.997Z,1.33
2023-05-22T15:40:25.004Z,1.00
2023-05-22T15:45:53.055Z,0.90
2023-05-22T15:51:17.999Z,1.00
2023-05-22T15:56:42.028Z,1.10
2023-05-22T16:02:10.012Z,1.13
2023-05-22T16:07:35.060Z,0.98
2023-05-22T16:13:00.069Z,1.17
2023-05-22T16:18:28.011Z,1.10
2023-05-22T16:23:53.069Z,1.00
2023-05-22T16:29:27.015Z,1.00
2023-05-22T16:34:57.005Z,1.33
2023-05-22T16:40:24.073Z,1.50
2023-05-22T16:45:54.038Z,1.70
2023-05-22T16:51:21.075Z,1.40
2023-05-22T16:56:46.083Z,1.23
2023-05-22T17:02:10.111Z,1.20
2023-05-22T17:07:38.053Z,1.50
2023-05-22T17:13:03.160Z,1.30
2023-05-22T17:18:29.095Z,1.35
2023-05-22T17:23:56.089Z,1.20
2023-05-22T17:29:21.073Z,1.30
2023-05-22T17:34:46.090Z,1.20
2023-05-22T17:40:15.096Z,1.25
2023-05-22T17:45:39.171Z,1.02
2023-05-22T17:51:04.114Z,0.98
2023-05-22T17:56:32.113Z,1.38
2023-05-22T18:01:59.199Z,1.50
2023-05-22T18:07:24.069Z,1.40
2023-05-22T18:12:52.113Z,1.50
2023-05-22T18:18:16.108Z,1.55
2023-05-22T18:23:41.176Z,1.50
2023-05-22T18:29:09.140Z,1.42
2023-05-22T18:34:36.573Z,1.80
2023-05-22T18:40:02.164Z,1.60
2023-05-22T18:45:30.120Z,1.80
2023-05-22T18:50:54.147Z,2.33
2023-05-22T18:56:20.185Z,1.95
2023-05-22T19:01:48.181Z,2.55
2023-05-22T19:07:15.225Z,1.75
2023-05-22T19:12:41.131Z,1.85
2023-05-22T19:18:11.224Z,1.88
2023-05-22T19:23:39.214Z,1.70
2023-05-22T19:29:10.139Z,1.80
2023-05-22T19:34:38.143Z,1.83
2023-05-22T19:40:03.203Z,1.90
2023-05-22T19:45:28.201Z,1.90
2023-05-22T19:50:55.178Z,1.77
2023-05-22T19:56:20.206Z,2.40
2023-05-22T20:01:44.241Z,2.38
2023-05-22T20:07:14.179Z,2.60
2023-05-22T20:12:38.212Z,2.30
2023-05-22T20:18:04.267Z,2.10
2023-05-22T20:23:34.169Z,1.90
2023-05-22T20:29:06.180Z,1.98
2023-05-22T20:34:35.181Z,1.90
2023-05-22T20:40:02.195Z,2.03
2023-05-22T20:45:27.231Z,1.90
2023-05-22T20:50:54.260Z,1.90
2023-05-22T20:56:22.192Z,1.90
2023-05-22T21:01:46.256Z,2.00
2023-05-22T21:07:11.201Z,2.40
2023-05-22T21:12:38.227Z,2.30
2023-05-22T21:18:03.277Z,2.40
2023-05-22T21:23:27.250Z,2.25
2023-05-22T21:29:01.228Z,2.40
2023-05-22T21:34:26.230Z,2.20
2023-05-22T21:39:50.277Z,2.30
2023-05-22T21:45:19.230Z,2.35
2023-05-22T21:50:43.251Z,2.20
2023-05-22T21:56:08.250Z,2.20
2023-05-22T22:01:35.304Z,2.60
2023-05-22T22:07:00.265Z,2.40
2023-05-22T22:12:24.302Z,2.28
2023-05-22T22:17:52.306Z,2.55
2023-05-22T22:23:17.258Z,2.35
2023-05-22T22:28:49.296Z,2.20
2023-05-22T22:34:17.267Z,2.35
2023-05-22T22:39:41.293Z,2.42
2023-05-22T22:45:06.275Z,2.10
2023-05-22T22:50:33.272Z,2.40
2023-05-22T22:56:03.324Z,2.40
2023-05-22T23:01:27.389Z,2.33
2023-05-22T23:06:55.301Z,2.50
2023-05-22T23:12:20.274Z,2.95
2023-05-22T23:17:45.314Z,3.10
2023-05-22T23:23:12.316Z,3.05
2023-05-22T23:28:37.364Z,3.25
2023-05-22T23:34:02.370Z,3.72
2023-05-22T23:39:30.330Z,3.35
2023-05-22T23:44:54.314Z,3.20
2023-05-22T23:50:20.300Z,3.47
2023-05-22T23:55:47.339Z,3.22
